sensor_id;sensor_type;location;lat;lon;timestamp;temperature;humidity
4366;DHT22;2196;47.422;9.656;2022-08-01T00:01:30;22.10;99.90
4366;DHT22;2196;47.422;9.656;2022-08-01T00:03:59;22.10;99.90
4366;DHT22;2196;47.422;9.656;2022-08-01T00:06:26;22.20;99.90
4366;DHT22;2196;47.422;9.656;2022-08-01T00:08:53;22.20;99.90
4366;DHT22;2196;47.422;9.656;2022-08-01T00:11:21;22.20;99.90
4366;DHT22;2196;47.422;9.656;2022-08-01T00:13:48;22.20;99.90
4366;DHT22;2196;47.422;9.656;2022-08-01T00:16:15;22.10;99.90
4366;DHT22;2196;47.422;9.656;2022-08-01T00:18:43;22.10;99.90
4366;DHT22;2196;47.422;9.656;2022-08-01T00:21:12;22.00;99.90
4366;DHT22;2196;47.422;9.656;2022-08-01T00:23:39;22.00;99.90
4366;DHT22;2196;47.422;9.656;2022-08-01T00:26:06;22.00;99.90
4366;DHT22;2196;47.422;9.656;2022-08-01T00:28:33;22.10;99.90
4366;DHT22;2196;47.422;9.656;2022-08-01T00:31:00;22.10;99.90
4366;DHT22;2196;47.422;9.656;2022-08-01T00:33:27;22.10;99.90
4366;DHT22;2196;47.422;9.656;2022-08-01T00:35:54;22.10;99.90
4366;DHT22;2196;47.422;9.656;2022-08-01T00:38:23;22.10;99.90
4366;DHT22;2196;47.422;9.656;2022-08-01T00:40:50;22.10;99.90
4366;DHT22;2196;47.422;9.656;2022-08-01T00:43:17;22.00;99.90
4366;DHT22;2196;47.422;9.656;2022-08-01T00:45:44;22.00;99.90
4366;DHT22;2196;47.422;9.656;2022-08-01T00:48:11;22.00;99.90
4366;DHT22;2196;47.422;9.656;2022-08-01T00:50:38;21.90;99.90
4366;DHT22;2196;47.422;9.656;2022-08-01T00:53:05;21.90;99.90
4366;DHT22;2196;47.422;9.656;2022-08-01T00:55:34;21.90;99.90
4366;DHT22;2196;47.422;9.656;2022-08-01T00:58:01;21.90;99.90
4366;DHT22;2196;47.422;9.656;2022-08-01T01:00:28;21.90;99.90
4366;DHT22;2196;47.422;9.656;2022-08-01T01:02:55;21.80;99.90
4366;DHT22;2196;47.422;9.656;2022-08-01T01:05:22;21.80;99.90
4366;DHT22;2196;47.422;9.656;2022-08-01T01:07:55;21.70;99.90
4366;DHT22;2196;47.422;9.656;2022-08-01T01:10:31;21.60;99.90
4366;DHT22;2196;47.422;9.656;2022-08-01T01:13:05;21.60;99.90
4366;DHT22;2196;47.422;9.656;2022-08-01T01:15:36;21.50;99.90
4366;DHT22;2196;47.422;9.656;2022-08-01T01:18:11;21.50;99.90
4366;DHT22;2196;47.422;9.656;2022-08-01T01:20:41;21.50;99.90
4366;DHT22;2196;47.422;9.656;2022-08-01T01:23:34;21.50;99.90
4366;DHT22;2196;47.422;9.656;2022-08-01T01:26:30;21.40;99.90
4366;DHT22;2196;47.422;9.656;2022-08-01T01:29:06;21.30;99.90
4366;DHT22;2196;47.422;9.656;2022-08-01T01:31:41;21.30;99.90
4366;DHT22;2196;47.422;9.656;2022-08-01T01:34:12;21.20;99.90
4366;DHT22;2196;47.422;9.656;2022-08-01T01:36:40;21.20;99.90
4366;DHT22;2196;47.422;9.656;2022-08-01T01:39:08;21.10;99.90
4366;DHT22;2196;47.422;9.656;2022-08-01T01:41:37;21.10;99.90
4366;DHT22;2196;47.422;9.656;2022-08-01T01:44:06;21.10;99.90
4366;DHT22;2196;47.422;9.656;2022-08-01T01:46:35;21.00;99.90
4366;DHT22;2196;47.422;9.656;2022-08-01T01:49:03;21.00;99.90
4366;DHT22;2196;47.422;9.656;2022-08-01T01:51:31;20.90;99.90
4366;DHT22;2196;47.422;9.656;2022-08-01T01:53:59;20.80;99.90
4366;DHT22;2196;47.422;9.656;2022-08-01T01:56:29;20.80;99.90
4366;DHT22;2196;47.422;9.656;2022-08-01T01:58:59;20.70;99.90
4366;DHT22;2196;47.422;9.656;2022-08-01T02:01:29;20.70;99.90
4366;DHT22;2196;47.422;9.656;2022-08-01T02:03:58;20.80;99.90
4366;DHT22;2196;47.422;9.656;2022-08-01T02:06:27;20.70;99.90
4366;DHT22;2196;47.422;9.656;2022-08-01T02:08:54;20.60;99.90
4366;DHT22;2196;47.422;9.656;2022-08-01T02:11:22;20.60;99.90
4366;DHT22;2196;47.422;9.656;2022-08-01T02:13:53;20.50;99.90
4366;DHT22;2196;47.422;9.656;2022-08-01T02:16:24;20.50;99.90
4366;DHT22;2196;47.422;9.656;2022-08-01T02:18:53;20.40;99.90
4366;DHT22;2196;47.422;9.656;2022-08-01T02:21:25;20.40;99.90
4366;DHT22;2196;47.422;9.656;2022-08-01T02:23:54;20.30;99.90
4366;DHT22;2196;47.422;9.656;2022-08-01T02:26:22;20.20;99.90
4366;DHT22;2196;47.422;9.656;2022-08-01T02:28:54;20.20;99.90
4366;DHT22;2196;47.422;9.656;2022-08-01T02:31:23;20.20;99.90
4366;DHT22;2196;47.422;9.656;2022-08-01T02:33:56;20.10;99.90
4366;DHT22;2196;47.422;9.656;2022-08-01T02:36:26;20.10;99.90
4366;DHT22;2196;47.422;9.656;2022-08-01T02:38:55;20.00;99.90
4366;DHT22;2196;47.422;9.656;2022-08-01T02:41:24;20.00;99.90
4366;DHT22;2196;47.422;9.656;2022-08-01T02:43:56;19.90;99.90
4366;DHT22;2196;47.422;9.656;2022-08-01T02:46:29;19.90;99.90
4366;DHT22;2196;47.422;9.656;2022-08-01T02:49:01;19.90;99.90
4366;DHT22;2196;47.422;9.656;2022-08-01T02:51:30;19.80;99.90
4366;DHT22;2196;47.422;9.656;2022-08-01T02:53:59;19.80;99.90
4366;DHT22;2196;47.422;9.656;2022-08-01T02:56:26;19.70;99.90
4366;DHT22;2196;47.422;9.656;2022-08-01T02:59:02;19.70;99.90
4366;DHT22;2196;47.422;9.656;2022-08-01T03:01:32;19.70;99.90
4366;DHT22;2196;47.422;9.656;2022-08-01T03:04:01;19.60;99.90
4366;DHT22;2196;47.422;9.656;2022-08-01T03:06:29;19.60;99.90
4366;DHT22;2196;47.422;9.656;2022-08-01T03:08:57;19.60;99.90
4366;DHT22;2196;47.422;9.656;2022-08-01T03:11:25;19.60;99.90
4366;DHT22;2196;47.422;9.656;2022-08-01T03:13:54;19.60;99.90
4366;DHT22;2196;47.422;9.656;2022-08-01T03:16:23;19.60;99.90
4366;DHT22;2196;47.422;9.656;2022-08-01T03:18:53;19.60;99.90
4366;DHT22;2196;47.422;9.656;2022-08-01T03:21:24;19.60;99.90
4366;DHT22;2196;47.422;9.656;2022-08-01T03:23:53;19.60;99.90
4366;DHT22;2196;47.422;9.656;2022-08-01T03:26:24;19.60;99.90
4366;DHT22;2196;47.422;9.656;2022-08-01T03:28:56;19.60;99.90
4366;DHT22;2196;47.422;9.656;2022-08-01T03:31:24;19.60;99.90
4366;DHT22;2196;47.422;9.656;2022-08-01T03:33:52;19.70;99.90
4366;DHT22;2196;47.422;9.656;2022-08-01T03:36:23;19.70;99.90
4366;DHT22;2196;47.422;9.656;2022-08-01T03:38:52;19.70;99.90
4366;DHT22;2196;47.422;9.656;2022-08-01T03:41:23;19.70;99.90
4366;DHT22;2196;47.422;9.656;2022-08-01T03:43:55;19.70;99.90
4366;DHT22;2196;47.422;9.656;2022-08-01T03:46:28;19.60;99.90
4366;DHT22;2196;47.422;9.656;2022-08-01T03:48:59;19.60;99.90
4366;DHT22;2196;47.422;9.656;2022-08-01T03:51:29;19.50;99.90
4366;DHT22;2196;47.422;9.656;2022-08-01T03:53:59;19.50;99.90
4366;DHT22;2196;47.422;9.656;2022-08-01T03:56:28;19.40;99.90
4366;DHT22;2196;47.422;9.656;2022-08-01T03:58:58;19.30;99.90
4366;DHT22;2196;47.422;9.656;2022-08-01T04:01:26;19.20;99.90
4366;DHT22;2196;47.422;9.656;2022-08-01T04:03:53;19.20;99.90
4366;DHT22;2196;47.422;9.656;2022-08-01T04:06:21;19.20;99.90
4366;DHT22;2196;47.422;9.656;2022-08-01T04:08:49;19.20;99.90
4366;DHT22;2196;47.422;9.656;2022-08-01T04:11:23;19.20;99.90
4366;DHT22;2196;47.422;9.656;2022-08-01T04:13:51;19.20;99.90
4366;DHT22;2196;47.422;9.656;2022-08-01T04:16:19;19.20;99.90
4366;DHT22;2196;47.422;9.656;2022-08-01T04:18:46;19.20;99.90
4366;DHT22;2196;47.422;9.656;2022-08-01T04:21:14;19.20;99.90
4366;DHT22;2196;47.422;9.656;2022-08-01T04:23:48;19.20;99.90
4366;DHT22;2196;47.422;9.656;2022-08-01T04:26:17;19.20;99.90
4366;DHT22;2196;47.422;9.656;2022-08-01T04:28:46;19.30;99.90
4366;DHT22;2196;47.422;9.656;2022-08-01T04:31:16;19.30;99.90
4366;DHT22;2196;47.422;9.656;2022-08-01T04:33:47;19.30;99.90
4366;DHT22;2196;47.422;9.656;2022-08-01T04:36:19;19.30;99.90
4366;DHT22;2196;47.422;9.656;2022-08-01T04:38:52;19.40;99.90
4366;DHT22;2196;47.422;9.656;2022-08-01T04:41:22;19.50;99.90
4366;DHT22;2196;47.422;9.656;2022-08-01T04:43:50;19.50;99.90
4366;DHT22;2196;47.422;9.656;2022-08-01T04:46:19;19.60;99.90
4366;DHT22;2196;47.422;9.656;2022-08-01T04:48:49;19.70;99.90
4366;DHT22;2196;47.422;9.656;2022-08-01T04:51:17;19.90;99.90
4366;DHT22;2196;47.422;9.656;2022-08-01T04:53:49;20.10;99.90
4366;DHT22;2196;47.422;9.656;2022-08-01T04:56:17;20.40;99.90
4366;DHT22;2196;47.422;9.656;2022-08-01T04:58:44;20.60;99.90
4366;DHT22;2196;47.422;9.656;2022-08-01T05:01:12;20.60;99.90
4366;DHT22;2196;47.422;9.656;2022-08-01T05:03:41;20.80;99.90
4366;DHT22;2196;47.422;9.656;2022-08-01T05:06:09;21.00;99.90
4366;DHT22;2196;47.422;9.656;2022-08-01T05:08:36;21.00;99.90
4366;DHT22;2196;47.422;9.656;2022-08-01T05:11:05;21.20;99.90
4366;DHT22;2196;47.422;9.656;2022-08-01T05:13:32;21.80;99.90
4366;DHT22;2196;47.422;9.656;2022-08-01T05:15:59;22.60;99.90
4366;DHT22;2196;47.422;9.656;2022-08-01T05:18:29;23.50;99.90
4366;DHT22;2196;47.422;9.656;2022-08-01T05:20:55;24.50;99.90
4366;DHT22;2196;47.422;9.656;2022-08-01T05:23:22;25.00;99.90
4366;DHT22;2196;47.422;9.656;2022-08-01T05:25:49;25.50;99.90
4366;DHT22;2196;47.422;9.656;2022-08-01T05:28:18;26.10;99.90
4366;DHT22;2196;47.422;9.656;2022-08-01T05:30:45;26.50;99.90
4366;DHT22;2196;47.422;9.656;2022-08-01T05:33:12;26.70;99.90
4366;DHT22;2196;47.422;9.656;2022-08-01T05:35:39;27.10;99.90
4366;DHT22;2196;47.422;9.656;2022-08-01T05:38:06;27.40;99.90
4366;DHT22;2196;47.422;9.656;2022-08-01T05:40:33;27.80;99.90
4366;DHT22;2196;47.422;9.656;2022-08-01T05:43:00;28.10;99.90
4366;DHT22;2196;47.422;9.656;2022-08-01T05:45:28;28.30;99.90
4366;DHT22;2196;47.422;9.656;2022-08-01T05:47:55;28.80;99.90
4366;DHT22;2196;47.422;9.656;2022-08-01T05:50:22;28.80;99.90
4366;DHT22;2196;47.422;9.656;2022-08-01T05:52:49;29.20;99.90
4366;DHT22;2196;47.422;9.656;2022-08-01T05:55:16;29.20;99.90
4366;DHT22;2196;47.422;9.656;2022-08-01T05:57:43;29.80;99.90
4366;DHT22;2196;47.422;9.656;2022-08-01T06:00:11;30.10;99.90
4366;DHT22;2196;47.422;9.656;2022-08-01T06:02:41;30.30;99.90
4366;DHT22;2196;47.422;9.656;2022-08-01T06:05:09;30.70;99.90
4366;DHT22;2196;47.422;9.656;2022-08-01T06:07:36;30.90;99.90
4366;DHT22;2196;47.422;9.656;2022-08-01T06:10:05;31.00;99.90
4366;DHT22;2196;47.422;9.656;2022-08-01T06:12:33;30.80;99.90
4366;DHT22;2196;47.422;9.656;2022-08-01T06:15:00;31.20;99.90
4366;DHT22;2196;47.422;9.656;2022-08-01T06:17:27;31.00;99.90
4366;DHT22;2196;47.422;9.656;2022-08-01T06:19:55;31.40;99.90
4366;DHT22;2196;47.422;9.656;2022-08-01T06:22:22;31.60;99.90
4366;DHT22;2196;47.422;9.656;2022-08-01T06:24:49;32.00;99.90
4366;DHT22;2196;47.422;9.656;2022-08-01T06:27:16;31.70;99.90
4366;DHT22;2196;47.422;9.656;2022-08-01T06:29:43;32.10;99.90
4366;DHT22;2196;47.422;9.656;2022-08-01T06:32:10;32.10;99.60
4366;DHT22;2196;47.422;9.656;2022-08-01T06:34:37;32.40;99.90
4366;DHT22;2196;47.422;9.656;2022-08-01T06:37:06;32.60;98.30
4366;DHT22;2196;47.422;9.656;2022-08-01T06:39:33;32.60;99.00
4366;DHT22;2196;47.422;9.656;2022-08-01T06:42:00;32.80;96.70
4366;DHT22;2196;47.422;9.656;2022-08-01T06:44:26;32.80;99.30
4366;DHT22;2196;47.422;9.656;2022-08-01T06:46:53;33.30;97.30
4366;DHT22;2196;47.422;9.656;2022-08-01T06:49:20;33.30;97.40
4366;DHT22;2196;47.422;9.656;2022-08-01T06:51:47;33.60;97.30
4366;DHT22;2196;47.422;9.656;2022-08-01T06:54:16;33.70;97.60
4366;DHT22;2196;47.422;9.656;2022-08-01T06:56:43;33.90;96.60
4366;DHT22;2196;47.422;9.656;2022-08-01T06:59:10;34.10;96.40
4366;DHT22;2196;47.422;9.656;2022-08-01T07:01:37;33.50;94.80
4366;DHT22;2196;47.422;9.656;2022-08-01T07:04:04;33.00;95.70
4366;DHT22;2196;47.422;9.656;2022-08-01T07:06:31;33.30;96.20
4366;DHT22;2196;47.422;9.656;2022-08-01T07:08:58;33.20;96.70
4366;DHT22;2196;47.422;9.656;2022-08-01T07:11:27;33.60;95.40
4366;DHT22;2196;47.422;9.656;2022-08-01T07:13:54;33.90;94.60
4366;DHT22;2196;47.422;9.656;2022-08-01T07:16:22;33.90;96.50
4366;DHT22;2196;47.422;9.656;2022-08-01T07:18:49;34.00;95.30
4366;DHT22;2196;47.422;9.656;2022-08-01T07:21:16;34.10;95.30
4366;DHT22;2196;47.422;9.656;2022-08-01T07:23:46;34.30;95.50
4366;DHT22;2196;47.422;9.656;2022-08-01T07:26:13;34.40;94.90
4366;DHT22;2196;47.422;9.656;2022-08-01T07:28:42;34.50;92.60
4366;DHT22;2196;47.422;9.656;2022-08-01T07:31:09;34.40;94.80
4366;DHT22;2196;47.422;9.656;2022-08-01T07:33:36;34.70;94.10
4366;DHT22;2196;47.422;9.656;2022-08-01T07:36:03;34.90;93.70
4366;DHT22;2196;47.422;9.656;2022-08-01T07:38:30;34.50;94.60
4366;DHT22;2196;47.422;9.656;2022-08-01T07:40:57;35.10;94.70
4366;DHT22;2196;47.422;9.656;2022-08-01T07:43:24;34.80;92.70
4366;DHT22;2196;47.422;9.656;2022-08-01T07:45:53;34.30;93.40
4366;DHT22;2196;47.422;9.656;2022-08-01T07:48:20;34.70;92.70
4366;DHT22;2196;47.422;9.656;2022-08-01T07:50:49;35.00;91.50
4366;DHT22;2196;47.422;9.656;2022-08-01T07:53:16;35.00;93.80
4366;DHT22;2196;47.422;9.656;2022-08-01T07:55:43;35.10;91.50
4366;DHT22;2196;47.422;9.656;2022-08-01T07:58:10;35.00;93.00
4366;DHT22;2196;47.422;9.656;2022-08-01T08:00:37;35.10;91.50
4366;DHT22;2196;47.422;9.656;2022-08-01T08:03:06;34.80;93.60
4366;DHT22;2196;47.422;9.656;2022-08-01T08:05:33;34.50;94.60
4366;DHT22;2196;47.422;9.656;2022-08-01T08:08:00;34.10;93.90
4366;DHT22;2196;47.422;9.656;2022-08-01T08:10:27;34.30;94.10
4366;DHT22;2196;47.422;9.656;2022-08-01T08:12:54;34.50;93.90
4366;DHT22;2196;47.422;9.656;2022-08-01T08:15:21;34.60;90.60
4366;DHT22;2196;47.422;9.656;2022-08-01T08:17:48;35.10;91.50
4366;DHT22;2196;47.422;9.656;2022-08-01T08:20:16;35.00;90.70
4366;DHT22;2196;47.422;9.656;2022-08-01T08:22:43;35.00;89.30
4366;DHT22;2196;47.422;9.656;2022-08-01T08:25:10;34.90;93.00
4366;DHT22;2196;47.422;9.656;2022-08-01T08:27:38;34.90;91.90
4366;DHT22;2196;47.422;9.656;2022-08-01T08:30:06;35.30;91.40
4366;DHT22;2196;47.422;9.656;2022-08-01T08:32:34;35.20;91.60
4366;DHT22;2196;47.422;9.656;2022-08-01T08:35:01;35.30;91.70
4366;DHT22;2196;47.422;9.656;2022-08-01T08:37:29;35.30;90.80
4366;DHT22;2196;47.422;9.656;2022-08-01T08:39:56;35.40;92.00
4366;DHT22;2196;47.422;9.656;2022-08-01T08:42:23;36.00;88.80
4366;DHT22;2196;47.422;9.656;2022-08-01T08:44:50;35.90;88.60
4366;DHT22;2196;47.422;9.656;2022-08-01T08:47:21;35.80;87.70
4366;DHT22;2196;47.422;9.656;2022-08-01T08:49:50;35.90;89.10
4366;DHT22;2196;47.422;9.656;2022-08-01T08:52:19;35.70;87.60
4366;DHT22;2196;47.422;9.656;2022-08-01T08:54:49;35.20;90.30
4366;DHT22;2196;47.422;9.656;2022-08-01T08:57:19;35.20;88.00
4366;DHT22;2196;47.422;9.656;2022-08-01T08:59:46;35.00;88.60
4366;DHT22;2196;47.422;9.656;2022-08-01T09:02:13;34.80;89.40
4366;DHT22;2196;47.422;9.656;2022-08-01T09:04:41;34.90;87.90
4366;DHT22;2196;47.422;9.656;2022-08-01T09:07:08;35.40;89.00
4366;DHT22;2196;47.422;9.656;2022-08-01T09:09:35;35.60;88.20
4366;DHT22;2196;47.422;9.656;2022-08-01T09:12:05;35.70;86.10
4366;DHT22;2196;47.422;9.656;2022-08-01T09:14:32;35.80;83.60
4366;DHT22;2196;47.422;9.656;2022-08-01T09:17:02;35.50;86.80
4366;DHT22;2196;47.422;9.656;2022-08-01T09:19:35;35.70;88.30
4366;DHT22;2196;47.422;9.656;2022-08-01T09:22:03;35.20;89.10
4366;DHT22;2196;47.422;9.656;2022-08-01T09:24:31;35.50;90.60
4366;DHT22;2196;47.422;9.656;2022-08-01T09:26:59;35.70;90.70
4366;DHT22;2196;47.422;9.656;2022-08-01T09:29:29;34.90;91.20
4366;DHT22;2196;47.422;9.656;2022-08-01T09:31:57;34.20;90.50
4366;DHT22;2196;47.422;9.656;2022-08-01T09:34:26;34.10;92.50
4366;DHT22;2196;47.422;9.656;2022-08-01T09:36:55;34.90;90.10
4366;DHT22;2196;47.422;9.656;2022-08-01T09:39:25;34.70;89.30
4366;DHT22;2196;47.422;9.656;2022-08-01T09:41:53;35.00;88.40
4366;DHT22;2196;47.422;9.656;2022-08-01T09:44:38;35.20;90.50
4366;DHT22;2196;47.422;9.656;2022-08-01T09:47:05;35.00;90.50
4366;DHT22;2196;47.422;9.656;2022-08-01T09:49:34;35.40;90.60
4366;DHT22;2196;47.422;9.656;2022-08-01T09:52:11;35.40;89.20
4366;DHT22;2196;47.422;9.656;2022-08-01T09:54:38;34.70;91.10
4366;DHT22;2196;47.422;9.656;2022-08-01T09:57:10;34.10;87.60
4366;DHT22;2196;47.422;9.656;2022-08-01T09:59:40;33.60;88.50
4366;DHT22;2196;47.422;9.656;2022-08-01T10:02:09;33.30;90.50
4366;DHT22;2196;47.422;9.656;2022-08-01T10:04:46;33.10;91.10
4366;DHT22;2196;47.422;9.656;2022-08-01T10:07:13;33.10;94.00
4366;DHT22;2196;47.422;9.656;2022-08-01T10:09:41;33.40;90.20
4366;DHT22;2196;47.422;9.656;2022-08-01T10:12:09;33.60;90.20
4366;DHT22;2196;47.422;9.656;2022-08-01T10:14:39;34.10;88.10
4366;DHT22;2196;47.422;9.656;2022-08-01T10:17:08;34.30;90.80
4366;DHT22;2196;47.422;9.656;2022-08-01T10:19:36;33.80;87.30
4366;DHT22;2196;47.422;9.656;2022-08-01T10:22:07;33.30;91.20
4366;DHT22;2196;47.422;9.656;2022-08-01T10:24:37;33.30;90.10
4366;DHT22;2196;47.422;9.656;2022-08-01T10:27:06;33.00;90.30
4366;DHT22;2196;47.422;9.656;2022-08-01T10:29:39;32.60;91.10
4366;DHT22;2196;47.422;9.656;2022-08-01T10:32:09;33.10;92.20
4366;DHT22;2196;47.422;9.656;2022-08-01T10:34:38;32.80;91.40
4366;DHT22;2196;47.422;9.656;2022-08-01T10:37:05;33.10;92.30
4366;DHT22;2196;47.422;9.656;2022-08-01T10:39:33;33.20;91.30
4366;DHT22;2196;47.422;9.656;2022-08-01T10:42:01;33.40;92.40
4366;DHT22;2196;47.422;9.656;2022-08-01T10:44:30;33.60;87.90
4366;DHT22;2196;47.422;9.656;2022-08-01T10:47:01;33.90;91.60
4366;DHT22;2196;47.422;9.656;2022-08-01T10:49:34;33.60;90.20
4366;DHT22;2196;47.422;9.656;2022-08-01T10:52:03;33.10;90.70
4366;DHT22;2196;47.422;9.656;2022-08-01T10:54:38;33.00;90.40
4366;DHT22;2196;47.422;9.656;2022-08-01T10:57:05;32.90;90.90
4366;DHT22;2196;47.422;9.656;2022-08-01T10:59:33;32.70;90.00
4366;DHT22;2196;47.422;9.656;2022-08-01T11:02:02;32.20;91.20
4366;DHT22;2196;47.422;9.656;2022-08-01T11:04:40;32.00;93.00
4366;DHT22;2196;47.422;9.656;2022-08-01T11:07:13;31.70;94.10
4366;DHT22;2196;47.422;9.656;2022-08-01T11:09:43;31.70;94.30
4366;DHT22;2196;47.422;9.656;2022-08-01T11:12:12;31.70;91.70
4366;DHT22;2196;47.422;9.656;2022-08-01T11:17:53;31.60;93.70
4366;DHT22;2196;47.422;9.656;2022-08-01T11:20:23;31.50;92.70
4366;DHT22;2196;47.422;9.656;2022-08-01T11:23:24;31.10;92.50
4366;DHT22;2196;47.422;9.656;2022-08-01T11:26:21;31.00;93.90
4366;DHT22;2196;47.422;9.656;2022-08-01T11:29:14;30.90;95.20
4366;DHT22;2196;47.422;9.656;2022-08-01T11:31:41;30.50;94.20
4366;DHT22;2196;47.422;9.656;2022-08-01T11:34:08;30.30;94.20
4366;DHT22;2196;47.422;9.656;2022-08-01T11:36:36;30.10;95.60
4366;DHT22;2196;47.422;9.656;2022-08-01T11:39:14;30.10;96.00
4366;DHT22;2196;47.422;9.656;2022-08-01T11:41:43;30.20;94.10
4366;DHT22;2196;47.422;9.656;2022-08-01T11:44:11;30.30;94.60
4366;DHT22;2196;47.422;9.656;2022-08-01T11:46:50;30.20;95.50
4366;DHT22;2196;47.422;9.656;2022-08-01T11:49:44;29.90;96.10
4366;DHT22;2196;47.422;9.656;2022-08-01T11:52:17;29.80;96.70
4366;DHT22;2196;47.422;9.656;2022-08-01T11:54:47;29.70;96.60
4366;DHT22;2196;47.422;9.656;2022-08-01T11:57:17;29.40;97.40
4366;DHT22;2196;47.422;9.656;2022-08-01T11:59:46;29.40;97.60
4366;DHT22;2196;47.422;9.656;2022-08-01T12:02:16;29.30;97.90
4366;DHT22;2196;47.422;9.656;2022-08-01T12:04:49;29.10;96.40
4366;DHT22;2196;47.422;9.656;2022-08-01T12:07:18;29.10;98.40
4366;DHT22;2196;47.422;9.656;2022-08-01T12:09:45;28.90;97.80
4366;DHT22;2196;47.422;9.656;2022-08-01T12:12:15;28.90;96.60
4366;DHT22;2196;47.422;9.656;2022-08-01T12:14:53;29.10;97.30
4366;DHT22;2196;47.422;9.656;2022-08-01T12:17:33;29.30;97.60
4366;DHT22;2196;47.422;9.656;2022-08-01T12:20:00;29.40;96.80
4366;DHT22;2196;47.422;9.656;2022-08-01T12:22:29;29.40;97.20
4366;DHT22;2196;47.422;9.656;2022-08-01T12:24:56;29.30;97.80
4366;DHT22;2196;47.422;9.656;2022-08-01T12:27:31;29.30;97.00
4366;DHT22;2196;47.422;9.656;2022-08-01T12:29:58;29.40;97.60
4366;DHT22;2196;47.422;9.656;2022-08-01T12:32:27;29.30;96.60
4366;DHT22;2196;47.422;9.656;2022-08-01T12:34:57;29.40;96.30
4366;DHT22;2196;47.422;9.656;2022-08-01T12:37:28;29.30;95.40
4366;DHT22;2196;47.422;9.656;2022-08-01T12:39:56;29.40;95.80
4366;DHT22;2196;47.422;9.656;2022-08-01T12:42:24;29.40;96.00
4366;DHT22;2196;47.422;9.656;2022-08-01T12:44:51;29.30;95.20
4366;DHT22;2196;47.422;9.656;2022-08-01T12:47:20;29.40;97.30
4366;DHT22;2196;47.422;9.656;2022-08-01T12:49:48;29.50;97.40
4366;DHT22;2196;47.422;9.656;2022-08-01T12:52:15;29.50;95.50
4366;DHT22;2196;47.422;9.656;2022-08-01T12:55:02;29.50;94.50
4366;DHT22;2196;47.422;9.656;2022-08-01T12:57:29;29.60;96.50
4366;DHT22;2196;47.422;9.656;2022-08-01T13:00:10;29.50;96.20
4366;DHT22;2196;47.422;9.656;2022-08-01T13:02:39;29.50;94.80
4366;DHT22;2196;47.422;9.656;2022-08-01T13:05:07;29.40;96.00
4366;DHT22;2196;47.422;9.656;2022-08-01T13:07:36;29.40;94.30
4366;DHT22;2196;47.422;9.656;2022-08-01T13:10:05;29.30;95.40
4366;DHT22;2196;47.422;9.656;2022-08-01T13:12:33;29.30;94.80
4366;DHT22;2196;47.422;9.656;2022-08-01T13:15:17;29.10;94.50
4366;DHT22;2196;47.422;9.656;2022-08-01T13:17:44;29.20;95.80
4366;DHT22;2196;47.422;9.656;2022-08-01T13:20:22;29.30;97.20
4366;DHT22;2196;47.422;9.656;2022-08-01T13:22:49;29.30;95.30
4366;DHT22;2196;47.422;9.656;2022-08-01T13:25:18;29.40;94.20
4366;DHT22;2196;47.422;9.656;2022-08-01T13:27:45;29.40;95.70
4366;DHT22;2196;47.422;9.656;2022-08-01T13:30:14;29.50;94.40
4366;DHT22;2196;47.422;9.656;2022-08-01T13:32:41;29.50;94.10
4366;DHT22;2196;47.422;9.656;2022-08-01T13:35:11;29.50;93.10
4366;DHT22;2196;47.422;9.656;2022-08-01T13:37:40;29.40;95.40
4366;DHT22;2196;47.422;9.656;2022-08-01T13:40:09;29.40;94.20
4366;DHT22;2196;47.422;9.656;2022-08-01T13:42:38;29.50;93.70
4366;DHT22;2196;47.422;9.656;2022-08-01T13:45:06;29.50;94.20
4366;DHT22;2196;47.422;9.656;2022-08-01T13:47:36;29.50;94.70
4366;DHT22;2196;47.422;9.656;2022-08-01T13:50:05;29.60;94.00
4366;DHT22;2196;47.422;9.656;2022-08-01T13:52:32;29.40;93.20
4366;DHT22;2196;47.422;9.656;2022-08-01T13:54:59;29.50;93.20
4366;DHT22;2196;47.422;9.656;2022-08-01T13:57:27;29.50;93.00
4366;DHT22;2196;47.422;9.656;2022-08-01T13:59:55;29.50;93.80
4366;DHT22;2196;47.422;9.656;2022-08-01T14:02:25;29.50;94.00
4366;DHT22;2196;47.422;9.656;2022-08-01T14:04:52;29.60;93.30
4366;DHT22;2196;47.422;9.656;2022-08-01T14:07:19;29.40;93.40
4366;DHT22;2196;47.422;9.656;2022-08-01T14:09:46;29.20;93.80
4366;DHT22;2196;47.422;9.656;2022-08-01T14:12:13;29.20;93.80
4366;DHT22;2196;47.422;9.656;2022-08-01T14:14:40;29.10;93.10
4366;DHT22;2196;47.422;9.656;2022-08-01T14:17:09;29.10;93.10
4366;DHT22;2196;47.422;9.656;2022-08-01T14:19:36;29.10;93.50
4366;DHT22;2196;47.422;9.656;2022-08-01T14:22:03;29.20;94.00
4366;DHT22;2196;47.422;9.656;2022-08-01T14:24:30;29.20;93.00
4366;DHT22;2196;47.422;9.656;2022-08-01T14:26:57;29.20;93.70
4366;DHT22;2196;47.422;9.656;2022-08-01T14:29:24;29.30;94.00
4366;DHT22;2196;47.422;9.656;2022-08-01T14:31:52;29.30;93.50
4366;DHT22;2196;47.422;9.656;2022-08-01T14:34:20;29.30;93.50
4366;DHT22;2196;47.422;9.656;2022-08-01T14:36:47;29.30;93.70
4366;DHT22;2196;47.422;9.656;2022-08-01T14:39:14;29.30;92.90
4366;DHT22;2196;47.422;9.656;2022-08-01T14:41:41;29.30;94.10
4366;DHT22;2196;47.422;9.656;2022-08-01T14:44:08;29.30;95.10
4366;DHT22;2196;47.422;9.656;2022-08-01T14:46:35;29.30;94.80
4366;DHT22;2196;47.422;9.656;2022-08-01T14:49:02;29.30;96.50
4366;DHT22;2196;47.422;9.656;2022-08-01T14:51:30;29.30;96.00
4366;DHT22;2196;47.422;9.656;2022-08-01T14:54:00;29.20;93.50
4366;DHT22;2196;47.422;9.656;2022-08-01T14:56:26;29.20;92.60
4366;DHT22;2196;47.422;9.656;2022-08-01T14:58:54;29.20;92.80
4366;DHT22;2196;47.422;9.656;2022-08-01T15:01:21;29.30;92.70
4366;DHT22;2196;47.422;9.656;2022-08-01T15:03:48;29.20;92.50
4366;DHT22;2196;47.422;9.656;2022-08-01T15:06:16;29.30;92.80
4366;DHT22;2196;47.422;9.656;2022-08-01T15:08:46;29.30;92.70
4366;DHT22;2196;47.422;9.656;2022-08-01T15:11:13;29.30;92.20
4366;DHT22;2196;47.422;9.656;2022-08-01T15:13:40;29.30;93.90
4366;DHT22;2196;47.422;9.656;2022-08-01T15:16:07;29.20;93.10
4366;DHT22;2196;47.422;9.656;2022-08-01T15:18:34;29.20;93.80
4366;DHT22;2196;47.422;9.656;2022-08-01T15:21:01;29.10;93.20
4366;DHT22;2196;47.422;9.656;2022-08-01T15:23:28;29.20;92.70
4366;DHT22;2196;47.422;9.656;2022-08-01T15:25:56;29.30;93.00
4366;DHT22;2196;47.422;9.656;2022-08-01T15:28:23;29.30;93.10
4366;DHT22;2196;47.422;9.656;2022-08-01T15:30:50;29.40;95.30
4366;DHT22;2196;47.422;9.656;2022-08-01T15:33:17;29.50;94.00
4366;DHT22;2196;47.422;9.656;2022-08-01T15:35:46;29.50;92.80
4366;DHT22;2196;47.422;9.656;2022-08-01T15:38:13;29.60;95.10
4366;DHT22;2196;47.422;9.656;2022-08-01T15:40:40;29.50;93.20
4366;DHT22;2196;47.422;9.656;2022-08-01T15:43:09;29.50;93.00
4366;DHT22;2196;47.422;9.656;2022-08-01T15:45:36;29.40;92.60
4366;DHT22;2196;47.422;9.656;2022-08-01T15:48:03;29.40;91.80
4366;DHT22;2196;47.422;9.656;2022-08-01T15:50:30;29.40;92.20
4366;DHT22;2196;47.422;9.656;2022-08-01T15:52:57;29.40;92.00
4366;DHT22;2196;47.422;9.656;2022-08-01T15:55:24;29.40;91.50
4366;DHT22;2196;47.422;9.656;2022-08-01T15:57:51;29.40;91.80
4366;DHT22;2196;47.422;9.656;2022-08-01T16:00:19;29.40;91.80
4366;DHT22;2196;47.422;9.656;2022-08-01T16:02:46;29.50;92.30
4366;DHT22;2196;47.422;9.656;2022-08-01T16:05:13;29.50;92.20
4366;DHT22;2196;47.422;9.656;2022-08-01T16:07:40;29.40;91.90
4366;DHT22;2196;47.422;9.656;2022-08-01T16:10:08;29.40;91.30
4366;DHT22;2196;47.422;9.656;2022-08-01T16:12:35;29.30;91.60
4366;DHT22;2196;47.422;9.656;2022-08-01T16:15:02;29.40;92.00
4366;DHT22;2196;47.422;9.656;2022-08-01T16:17:30;29.50;92.80